createdAt,value
2019-05-14T00:01:36.969Z,8.30
2019-05-14T00:04:11.555Z,8.30
2019-05-14T00:06:44.515Z,8.30
2019-05-14T00:09:17.361Z,8.30
2019-05-14T00:11:51.284Z,8.20
2019-05-14T00:14:35.662Z,8.20
2019-05-14T00:16:58.990Z,8.30
2019-05-14T00:19:32.945Z,8.30
2019-05-14T00:22:05.756Z,8.30
2019-05-14T00:24:38.573Z,8.40
2019-05-14T00:27:11.739Z,8.40
2019-05-14T00:29:44.745Z,8.50
2019-05-14T00:32:17.711Z,8.40
2019-05-14T00:34:51.553Z,8.40
2019-05-14T00:37:24.626Z,8.30
2019-05-14T00:39:57.445Z,8.40
2019-05-14T00:42:31.909Z,8.40
2019-05-14T00:45:06.540Z,8.60
2019-05-14T00:47:41.575Z,8.70
2019-05-14T00:50:14.046Z,8.70
2019-05-14T00:52:46.829Z,8.80
2019-05-14T00:55:22.110Z,8.70
2019-05-14T00:57:55.691Z,8.70
2019-05-14T01:00:28.635Z,8.60
2019-05-14T01:03:02.194Z,8.50
2019-05-14T01:05:35.043Z,8.50
2019-05-14T01:08:07.827Z,8.40
2019-05-14T01:10:41.745Z,8.50
2019-05-14T01:13:14.714Z,8.50
2019-05-14T01:15:47.641Z,8.50
2019-05-14T01:18:21.962Z,8.40
2019-05-14T01:20:54.976Z,8.40
2019-05-14T01:23:27.760Z,8.30
2019-05-14T01:26:02.362Z,8.30
2019-05-14T01:28:35.329Z,8.20
2019-05-14T01:31:08.150Z,8.10
2019-05-14T01:33:41.189Z,8.10
2019-05-14T01:36:14.094Z,8.10
2019-05-14T01:38:47.040Z,8.10
2019-05-14T01:41:22.189Z,8.00
2019-05-14T01:43:54.608Z,8.00
2019-05-14T01:46:27.471Z,7.90
2019-05-14T01:49:01.514Z,8.00
2019-05-14T01:51:34.556Z,7.90
2019-05-14T01:54:07.327Z,8.10
2019-05-14T01:56:42.312Z,8.10
2019-05-14T01:59:14.926Z,8.00
2019-05-14T02:01:47.751Z,7.90
2019-05-14T02:04:22.114Z,7.80
2019-05-14T02:06:55.164Z,7.70
2019-05-14T02:09:27.974Z,7.70
2019-05-14T02:12:02.263Z,7.70
2019-05-14T02:14:35.402Z,7.70
2019-05-14T02:17:08.235Z,7.70
2019-05-14T02:19:42.591Z,7.60
2019-05-14T02:22:15.696Z,7.60
2019-05-14T02:24:48.467Z,7.50
2019-05-14T02:27:21.527Z,7.50
2019-05-14T02:29:55.458Z,7.50
2019-05-14T02:32:29.820Z,7.50
2019-05-14T02:35:02.912Z,7.50
2019-05-14T02:37:35.702Z,7.50
2019-05-14T02:40:09.841Z,7.40
2019-05-14T02:42:43.459Z,7.40
2019-05-14T02:45:19.506Z,7.40
2019-05-14T02:47:51.226Z,7.40
2019-05-14T02:50:24.023Z,7.40
2019-05-14T02:52:59.901Z,7.30
2019-05-14T02:55:32.888Z,7.20
2019-05-14T02:58:05.718Z,7.20
2019-05-14T03:00:40.800Z,7.30
2019-05-14T03:03:13.323Z,7.20
2019-05-14T03:05:49.246Z,7.30
2019-05-14T03:08:21.204Z,7.30
2019-05-14T03:10:54.104Z,7.20
2019-05-14T03:13:29.579Z,7.10
2019-05-14T03:16:20.996Z,7.20
2019-05-14T03:18:39.426Z,7.10
2019-05-14T03:21:11.096Z,7.00
2019-05-14T03:23:43.896Z,6.90
2019-05-14T03:26:19.631Z,6.90
2019-05-14T03:28:51.676Z,6.80
2019-05-14T03:31:24.481Z,6.70
2019-05-14T03:34:02.507Z,6.80
2019-05-14T03:36:34.437Z,6.70
2019-05-14T03:39:10.232Z,6.80
2019-05-14T03:41:41.445Z,6.80
2019-05-14T03:44:14.264Z,6.80
2019-05-14T03:46:54.681Z,6.80
2019-05-14T03:49:21.767Z,6.80
2019-05-14T03:51:55.677Z,6.70
2019-05-14T03:54:29.753Z,6.70
2019-05-14T03:57:03.006Z,6.70
2019-05-14T03:59:35.987Z,6.70
2019-05-14T04:02:10.757Z,6.70
2019-05-14T04:04:43.616Z,6.80
2019-05-14T04:07:19.545Z,6.70
2019-05-14T04:09:54.594Z,6.80
2019-05-14T04:12:30.222Z,6.70
2019-05-14T04:15:05.020Z,6.80
2019-05-14T04:17:42.343Z,6.70
2019-05-14T04:20:14.310Z,6.80
2019-05-14T04:22:51.128Z,7.00
2019-05-14T04:25:29.615Z,7.00
2019-05-14T04:28:04.666Z,7.10
2019-05-14T04:30:40.890Z,7.30
2019-05-14T04:33:19.077Z,7.40
2019-05-14T04:35:53.835Z,7.60
2019-05-14T04:38:30.001Z,8.00
2019-05-14T04:41:01.506Z,9.00
2019-05-14T04:43:34.306Z,9.80
2019-05-14T04:46:10.485Z,10.40
2019-05-14T04:48:43.860Z,10.40
2019-05-14T04:51:19.574Z,10.80
2019-05-14T04:53:51.469Z,10.70
2019-05-14T04:56:24.552Z,11.00
2019-05-14T04:58:59.606Z,11.00
2019-05-14T05:01:32.093Z,11.20
2019-05-14T05:04:05.021Z,11.10
2019-05-14T05:06:39.643Z,11.30
2019-05-14T05:09:12.551Z,11.10
2019-05-14T05:11:45.364Z,10.90
2019-05-14T05:14:19.161Z,11.10
2019-05-14T05:16:52.281Z,11.00
2019-05-14T05:19:25.101Z,10.80
2019-05-14T05:21:58.744Z,11.00
2019-05-14T05:24:31.815Z,10.90
2019-05-14T05:27:04.643Z,11.10
2019-05-14T05:29:39.223Z,10.70
2019-05-14T05:32:12.150Z,10.50
2019-05-14T05:34:48.136Z,11.00
2019-05-14T05:37:20.449Z,10.50
2019-05-14T05:39:53.281Z,10.90
2019-05-14T05:42:26.072Z,10.50
2019-05-14T05:44:58.968Z,10.70
2019-05-14T05:47:31.723Z,10.80
2019-05-14T05:50:05.432Z,10.90
2019-05-14T05:52:38.875Z,11.30
2019-05-14T05:55:12.268Z,11.20
2019-05-14T05:57:45.087Z,11.10
2019-05-14T06:00:33.567Z,11.30
2019-05-14T06:03:10.272Z,11.80
2019-05-14T06:05:41.307Z,11.70
2019-05-14T06:08:14.218Z,11.80
2019-05-14T06:10:48.938Z,11.50
2019-05-14T06:13:21.756Z,11.60
2019-05-14T06:15:54.552Z,11.60
2019-05-14T06:18:28.617Z,12.10
2019-05-14T06:21:01.666Z,12.60
2019-05-14T06:23:38.353Z,12.30
2019-05-14T06:26:11.699Z,12.20
2019-05-14T06:28:44.731Z,12.30
2019-05-14T06:31:19.174Z,12.40
2019-05-14T06:33:52.328Z,12.50
2019-05-14T06:36:25.150Z,12.60
2019-05-14T06:38:58.656Z,12.60
2019-05-14T06:41:31.587Z,13.20
2019-05-14T06:44:04.420Z,13.70
2019-05-14T06:46:39.140Z,14.40
2019-05-14T06:49:11.960Z,14.90
2019-05-14T06:51:44.773Z,14.50
2019-05-14T06:54:19.660Z,14.10
2019-05-14T06:56:52.347Z,14.40
2019-05-14T06:59:25.180Z,14.70
2019-05-14T07:01:58.186Z,14.20
2019-05-14T07:04:31.332Z,13.70
2019-05-14T07:07:04.152Z,13.60
2019-05-14T07:09:38.510Z,12.80
2019-05-14T07:12:11.559Z,13.60
2019-05-14T07:14:44.482Z,13.70
2019-05-14T07:17:18.362Z,13.50
2019-05-14T07:19:51.421Z,13.80
2019-05-14T07:22:24.373Z,14.00
2019-05-14T07:24:58.755Z,14.10
2019-05-14T07:27:32.216Z,13.70
2019-05-14T07:30:05.590Z,13.40
2019-05-14T07:32:39.415Z,14.00
2019-05-14T07:35:13.491Z,13.50
2019-05-14T07:37:48.704Z,13.70
2019-05-14T07:40:21.057Z,14.00
2019-05-14T07:42:53.896Z,14.10
2019-05-14T07:45:28.593Z,13.80
2019-05-14T07:48:01.445Z,13.90
2019-05-14T07:50:34.740Z,14.20
2019-05-14T07:53:09.029Z,14.40
2019-05-14T07:55:42.030Z,14.10
2019-05-14T07:58:14.838Z,13.80
2019-05-14T08:00:49.177Z,13.40
2019-05-14T08:03:22.184Z,13.80
2019-05-14T08:05:55.016Z,13.50
2019-05-14T08:08:29.321Z,13.90
2019-05-14T08:11:03.119Z,14.50
2019-05-14T08:13:35.940Z,14.90
2019-05-14T08:16:09.107Z,15.60
2019-05-14T08:18:42.181Z,14.20
2019-05-14T08:21:15.022Z,13.80
2019-05-14T08:23:48.225Z,13.80
2019-05-14T08:26:21.250Z,14.10
2019-05-14T08:28:54.081Z,14.10
2019-05-14T08:31:29.070Z,14.30
2019-05-14T08:34:04.667Z,14.20
2019-05-14T08:36:37.990Z,14.50
2019-05-14T08:39:11.043Z,14.80
2019-05-14T08:41:58.575Z,14.50
2019-05-14T08:44:19.956Z,14.30
2019-05-14T08:46:52.868Z,13.90
2019-05-14T08:49:38.906Z,14.00
2019-05-14T08:52:01.431Z,14.00
2019-05-14T08:54:34.269Z,13.50
2019-05-14T08:57:09.855Z,14.30
2019-05-14T08:59:41.864Z,14.10
2019-05-14T09:02:14.672Z,14.80
2019-05-14T09:04:54.305Z,14.60
2019-05-14T09:07:22.356Z,14.80
2019-05-14T09:09:55.186Z,15.10
2019-05-14T09:12:28.201Z,15.30
2019-05-14T09:15:01.385Z,14.70
2019-05-14T09:17:34.420Z,15.00
2019-05-14T09:20:11.007Z,15.10
2019-05-14T09:22:42.832Z,14.30
2019-05-14T09:25:15.882Z,14.40
2019-05-14T09:27:49.496Z,14.70
2019-05-14T09:30:28.958Z,14.40
2019-05-14T09:33:01.773Z,14.40
2019-05-14T09:35:34.672Z,15.00
2019-05-14T09:38:08.708Z,14.70
2019-05-14T09:40:41.900Z,14.20
2019-05-14T09:43:14.880Z,13.70
2019-05-14T09:45:48.214Z,14.30
2019-05-14T09:48:22.241Z,14.20
2019-05-14T09:50:55.082Z,14.20
2019-05-14T09:53:28.826Z,14.20
2019-05-14T09:56:01.905Z,14.40
2019-05-14T09:58:34.744Z,14.60
2019-05-14T10:01:08.586Z,14.70
2019-05-14T10:03:41.699Z,14.10
2019-05-14T10:06:14.588Z,14.20
2019-05-14T10:08:48.557Z,13.90
2019-05-14T10:11:21.642Z,13.80
2019-05-14T10:13:54.457Z,14.20
2019-05-14T10:16:29.163Z,14.40
2019-05-14T10:19:02.017Z,14.30
2019-05-14T10:21:35.924Z,14.40
2019-05-14T10:24:09.287Z,14.60
2019-05-14T10:26:42.489Z,14.50
2019-05-14T10:29:15.315Z,14.30
2019-05-14T10:31:48.690Z,14.00
2019-05-14T10:34:21.560Z,14.50
2019-05-14T10:36:54.433Z,14.50
2019-05-14T10:39:29.797Z,14.80
2019-05-14T10:42:02.346Z,14.90
2019-05-14T10:44:35.160Z,15.30
2019-05-14T10:47:09.183Z,15.00
2019-05-14T10:49:42.440Z,14.50
2019-05-14T10:52:15.293Z,14.70
2019-05-14T10:54:55.760Z,14.10
2019-05-14T10:57:23.003Z,13.70
2019-05-14T10:59:55.814Z,13.90
2019-05-14T11:02:29.260Z,14.10
2019-05-14T11:05:03.348Z,14.20
2019-05-14T11:07:41.398Z,14.50
2019-05-14T11:10:11.132Z,14.00
2019-05-14T11:12:43.969Z,13.70
2019-05-14T11:15:19.143Z,14.20
2019-05-14T11:17:52.055Z,14.60
2019-05-14T11:20:24.964Z,15.00
2019-05-14T11:22:58.449Z,14.30
2019-05-14T11:25:31.409Z,13.80
2019-05-14T11:28:04.286Z,14.20
2019-05-14T11:30:39.169Z,14.20
2019-05-14T11:33:11.835Z,14.20
2019-05-14T11:35:44.679Z,14.40
2019-05-14T11:38:31.727Z,14.50
2019-05-14T11:40:52.248Z,14.80
2019-05-14T11:43:25.071Z,14.90
2019-05-14T11:45:59.382Z,14.80
2019-05-14T11:48:32.410Z,14.50
2019-05-14T11:51:05.234Z,14.50
2019-05-14T11:53:38.652Z,14.60
2019-05-14T11:56:11.661Z,14.70
2019-05-14T11:58:44.513Z,14.80
2019-05-14T12:01:18.908Z,15.30
2019-05-14T12:03:52.068Z,15.20
2019-05-14T12:06:24.856Z,14.80
2019-05-14T12:08:58.252Z,14.60
2019-05-14T12:11:32.306Z,14.80
2019-05-14T12:14:05.124Z,15.00
2019-05-14T12:16:40.138Z,15.10
2019-05-14T12:19:12.792Z,15.40
2019-05-14T12:22:02.918Z,15.40
2019-05-14T12:24:20.457Z,14.90
2019-05-14T12:26:53.301Z,15.10
2019-05-14T12:29:28.924Z,14.80
2019-05-14T12:32:00.889Z,14.80
2019-05-14T12:34:33.813Z,15.00
2019-05-14T12:37:08.966Z,15.10
2019-05-14T12:39:41.468Z,15.60
2019-05-14T12:42:14.385Z,15.30
2019-05-14T12:44:47.231Z,14.80
2019-05-14T12:47:20.057Z,14.60
2019-05-14T12:49:52.889Z,14.80
2019-05-14T12:52:26.282Z,15.40
2019-05-14T12:54:59.825Z,15.20
2019-05-14T12:57:33.122Z,15.50
2019-05-14T13:00:08.985Z,15.30
2019-05-14T13:02:42.918Z,15.30
2019-05-14T13:05:18.128Z,15.50
2019-05-14T13:07:51.244Z,15.10
2019-05-14T13:10:24.352Z,14.80
2019-05-14T13:12:58.845Z,14.70
2019-05-14T13:15:31.752Z,15.10
2019-05-14T13:18:04.659Z,15.00
2019-05-14T13:20:38.880Z,14.80
2019-05-14T13:23:12.915Z,15.00
2019-05-14T13:25:45.886Z,15.10
2019-05-14T13:28:19.484Z,15.30
2019-05-14T13:30:52.473Z,15.20
2019-05-14T13:33:25.504Z,14.70
2019-05-14T13:35:59.401Z,14.30
2019-05-14T13:38:32.493Z,14.20
2019-05-14T13:41:05.342Z,14.70
2019-05-14T13:43:38.979Z,15.20
2019-05-14T13:46:15.202Z,15.40
2019-05-14T13:48:49.920Z,15.70
2019-05-14T13:51:22.358Z,15.50
2019-05-14T13:53:55.274Z,15.10
2019-05-14T13:56:28.465Z,14.90
2019-05-14T13:59:01.348Z,14.90
2019-05-14T14:01:34.157Z,14.80
2019-05-14T14:04:14.142Z,14.90
2019-05-14T14:06:41.837Z,15.20
2019-05-14T14:09:14.662Z,15.40
2019-05-14T14:11:48.275Z,15.60
2019-05-14T14:14:21.242Z,15.50
2019-05-14T14:16:54.094Z,15.30
2019-05-14T14:19:28.203Z,15.00
2019-05-14T14:22:01.490Z,14.80
2019-05-14T14:24:34.319Z,14.60
2019-05-14T14:27:09.133Z,14.90
2019-05-14T14:29:41.945Z,15.20
2019-05-14T14:32:14.927Z,15.50
2019-05-14T14:34:47.884Z,15.60
2019-05-14T14:37:20.735Z,15.20
2019-05-14T14:39:53.629Z,14.80
2019-05-14T14:42:29.798Z,14.50
2019-05-14T14:45:03.287Z,14.70
2019-05-14T14:47:36.244Z,15.30
2019-05-14T14:50:09.308Z,15.80
2019-05-14T14:52:42.215Z,15.80
2019-05-14T14:55:15.209Z,15.10
2019-05-14T14:57:54.145Z,14.70
2019-05-14T15:00:23.046Z,14.50
2019-05-14T15:02:59.450Z,14.50
2019-05-14T15:05:30.759Z,14.80
2019-05-14T15:08:03.616Z,15.10
2019-05-14T15:10:39.285Z,15.30
2019-05-14T15:13:11.425Z,15.40
2019-05-14T15:15:44.257Z,15.70
2019-05-14T15:18:18.800Z,15.50
2019-05-14T15:20:51.901Z,15.40
2019-05-14T15:23:24.738Z,15.40
2019-05-14T15:25:58.930Z,15.50
2019-05-14T15:28:31.968Z,15.60
2019-05-14T15:31:04.791Z,15.80
2019-05-14T15:33:37.785Z,15.70
2019-05-14T15:36:10.789Z,15.50
2019-05-14T15:38:43.816Z,15.40
2019-05-14T15:41:19.234Z,15.40
2019-05-14T15:43:51.389Z,15.20
2019-05-14T15:46:24.246Z,15.20
2019-05-14T15:48:59.547Z,15.20
2019-05-14T15:51:31.864Z,15.00
2019-05-14T15:54:21.065Z,14.80
2019-05-14T15:56:39.620Z,14.90
2019-05-14T15:59:12.534Z,15.10
2019-05-14T16:01:45.414Z,15.30
2019-05-14T16:04:20.662Z,15.20
2019-05-14T16:06:53.011Z,14.80
2019-05-14T16:09:28.694Z,14.80
2019-05-14T16:12:01.776Z,14.70
2019-05-14T16:14:34.673Z,14.60
2019-05-14T16:17:11.228Z,14.60
2019-05-14T16:19:42.293Z,14.50
2019-05-14T16:22:15.223Z,14.70
2019-05-14T16:24:56.489Z,14.70
2019-05-14T16:27:22.838Z,14.40
2019-05-14T16:29:58.463Z,14.40
2019-05-14T16:32:30.498Z,14.30
2019-05-14T16:35:04.258Z,14.50
2019-05-14T16:37:39.250Z,14.70
2019-05-14T16:40:12.294Z,14.80
2019-05-14T16:42:45.153Z,14.70
2019-05-14T16:45:18.709Z,14.60
2019-05-14T16:47:51.673Z,14.30
2019-05-14T16:50:24.570Z,14.20
2019-05-14T16:52:58.900Z,14.40
2019-05-14T16:55:31.973Z,14.30
2019-05-14T16:58:05.840Z,14.40
2019-05-14T17:00:38.710Z,14.40
2019-05-14T17:03:11.580Z,14.50
2019-05-14T17:05:44.513Z,14.50
2019-05-14T17:08:18.995Z,14.60
2019-05-14T17:10:52.395Z,14.70
2019-05-14T17:13:25.294Z,14.80
2019-05-14T17:15:58.887Z,14.60
2019-05-14T17:18:31.944Z,14.50
2019-05-14T17:21:04.849Z,14.50
2019-05-14T17:23:39.327Z,14.40
2019-05-14T17:26:12.350Z,14.10
2019-05-14T17:28:45.211Z,14.00
2019-05-14T17:31:19.112Z,13.80
2019-05-14T17:33:52.282Z,13.80
2019-05-14T17:36:25.153Z,13.80
2019-05-14T17:38:58.634Z,13.90
2019-05-14T17:41:31.588Z,13.80
2019-05-14T17:44:04.882Z,13.70
2019-05-14T17:46:39.440Z,13.70
2019-05-14T17:49:13.030Z,13.60
2019-05-14T17:51:48.338Z,13.60
2019-05-14T17:54:22.284Z,13.60
2019-05-14T17:56:55.260Z,13.50
2019-05-14T17:59:29.810Z,13.50
2019-05-14T18:02:02.873Z,13.60
2019-05-14T18:04:35.861Z,13.70
2019-05-14T18:07:08.804Z,13.70
2019-05-14T18:09:41.814Z,13.60
2019-05-14T18:12:14.730Z,13.50
2019-05-14T18:14:48.689Z,13.50
2019-05-14T18:17:21.518Z,13.40
2019-05-14T18:19:54.349Z,13.20
2019-05-14T18:22:28.626Z,13.20
2019-05-14T18:25:01.992Z,13.10
2019-05-14T18:27:35.261Z,13.00
2019-05-14T18:30:09.414Z,12.80
2019-05-14T18:32:42.396Z,12.80
2019-05-14T18:35:18.785Z,12.70
2019-05-14T18:37:51.909Z,12.60
2019-05-14T18:40:24.937Z,12.50
2019-05-14T18:42:59.173Z,12.40
2019-05-14T18:45:33.344Z,12.50
2019-05-14T18:48:08.401Z,12.40
2019-05-14T18:50:40.999Z,12.30
2019-05-14T18:53:13.874Z,12.20
2019-05-14T18:55:48.935Z,12.10
2019-05-14T18:58:23.099Z,11.90
2019-05-14T19:00:58.449Z,11.80
2019-05-14T19:03:31.306Z,11.70
2019-05-14T19:06:04.268Z,11.70
2019-05-14T19:08:39.250Z,11.60
2019-05-14T19:11:11.957Z,11.50
2019-05-14T19:13:45.338Z,11.50
2019-05-14T19:16:18.224Z,11.30
2019-05-14T19:18:51.096Z,11.20
2019-05-14T19:21:24.031Z,11.10
2019-05-14T19:23:57.015Z,11.00
2019-05-14T19:26:36.526Z,10.90
2019-05-14T19:29:05.038Z,11.00
2019-05-14T19:31:38.650Z,10.90
2019-05-14T19:34:11.805Z,10.90
2019-05-14T19:36:44.701Z,10.70
2019-05-14T19:39:18.776Z,10.50
2019-05-14T19:41:52.553Z,10.50
2019-05-14T19:44:25.469Z,10.40
2019-05-14T19:46:59.210Z,10.50
2019-05-14T19:49:32.227Z,10.50
2019-05-14T19:52:05.102Z,10.30
2019-05-14T19:54:38.551Z,10.20
2019-05-14T19:57:11.569Z,10.10
2019-05-14T19:59:45.552Z,9.90
2019-05-14T20:02:18.562Z,9.90
2019-05-14T20:04:51.519Z,9.90
2019-05-14T20:07:24.418Z,9.90
2019-05-14T20:09:58.769Z,9.90
2019-05-14T20:12:31.797Z,9.80
2019-05-14T20:15:05.687Z,9.80
2019-05-14T20:17:38.728Z,9.80
2019-05-14T20:20:11.879Z,9.80
2019-05-14T20:22:44.689Z,9.80
2019-05-14T20:25:17.562Z,9.90
2019-05-14T20:27:50.394Z,9.90
2019-05-14T20:30:23.275Z,9.80
2019-05-14T20:32:56.061Z,9.80
2019-05-14T20:35:34.656Z,9.80
2019-05-14T20:38:03.590Z,9.70
2019-05-14T20:40:38.027Z,9.70
2019-05-14T20:43:10.962Z,9.60
2019-05-14T20:45:43.800Z,9.60
2019-05-14T20:48:18.883Z,9.70
2019-05-14T20:50:51.584Z,9.60
2019-05-14T20:53:24.445Z,9.50
2019-05-14T20:55:58.853Z,9.30
2019-05-14T20:58:31.820Z,9.30
2019-05-14T21:01:04.650Z,9.10
2019-05-14T21:03:37.456Z,9.00
2019-05-14T21:06:10.231Z,9.00
2019-05-14T21:08:43.027Z,8.80
2019-05-14T21:11:15.899Z,8.70
2019-05-14T21:13:50.429Z,8.60
2019-05-14T21:16:23.404Z,8.60
2019-05-14T21:18:56.242Z,8.60
2019-05-14T21:21:29.086Z,8.60
2019-05-14T21:24:01.969Z,8.70
2019-05-14T21:26:34.796Z,8.80
2019-05-14T21:29:08.000Z,8.80
2019-05-14T21:31:40.893Z,8.70
2019-05-14T21:34:13.708Z,8.60
2019-05-14T21:36:47.105Z,8.50
2019-05-14T21:39:19.933Z,8.40
2019-05-14T21:41:52.778Z,8.30
2019-05-14T21:44:28.284Z,8.30
2019-05-14T21:47:00.916Z,8.20
2019-05-14T21:49:33.709Z,8.20
2019-05-14T21:52:08.896Z,8.10
2019-05-14T21:54:41.289Z,8.20
2019-05-14T21:57:14.128Z,8.20
2019-05-14T21:59:48.030Z,8.30
2019-05-14T22:02:27.013Z,8.30
2019-05-14T22:04:58.252Z,8.30
2019-05-14T22:07:30.643Z,8.30
2019-05-14T22:10:04.884Z,8.30
2019-05-14T22:12:39.413Z,8.30
2019-05-14T22:15:12.832Z,8.10
2019-05-14T22:17:45.659Z,8.10
2019-05-14T22:20:19.206Z,8.00
2019-05-14T22:22:52.283Z,7.90
2019-05-14T22:25:28.364Z,7.80
2019-05-14T22:28:11.570Z,7.70
2019-05-14T22:30:35.798Z,7.60
2019-05-14T22:33:08.853Z,7.70
2019-05-14T22:35:41.701Z,7.70
2019-05-14T22:38:14.543Z,7.80
2019-05-14T22:40:48.287Z,7.80
2019-05-14T22:43:21.233Z,7.80
2019-05-14T22:45:54.118Z,7.90
2019-05-14T22:48:26.948Z,7.90
2019-05-14T22:50:59.772Z,7.90
2019-05-14T22:53:32.695Z,7.80
2019-05-14T22:56:05.498Z,7.80
2019-05-14T22:58:38.552Z,7.80
2019-05-14T23:01:14.687Z,7.70
2019-05-14T23:03:49.068Z,7.60
2019-05-14T23:06:21.620Z,7.60
2019-05-14T23:08:54.508Z,7.70
2019-05-14T23:11:28.888Z,7.60
2019-05-14T23:14:03.336Z,7.50
2019-05-14T23:16:41.244Z,7.40
2019-05-14T23:19:11.905Z,7.30
2019-05-14T23:21:44.751Z,7.20
2019-05-14T23:24:18.906Z,7.20
2019-05-14T23:26:51.900Z,7.20
2019-05-14T23:29:24.789Z,7.30
2019-05-14T23:32:08.140Z,7.40
2019-05-14T23:34:41.513Z,7.50
2019-05-14T23:37:14.447Z,7.50
2019-05-14T23:39:49.083Z,7.40
2019-05-14T23:42:21.973Z,7.40
2019-05-14T23:44:54.816Z,7.40
2019-05-14T23:47:28.958Z,7.40
2019-05-14T23:50:01.992Z,7.30
2019-05-14T23:52:34.813Z,7.30
2019-05-14T23:55:08.542Z,7.30
2019-05-14T23:57:42.890Z,7.20
